sensor_id;sensor_type;location;lat;lon;timestamp;pressure;altitude;pressure_sealevel;temperature;humidity
55660;BME280;41534;53.550;9.964;2024-03-06T00:02:08;101777.84;;;21.93;39.94
55660;BME280;41534;53.550;9.964;2024-03-06T00:05:09;101786.38;;;21.90;39.80
55660;BME280;41534;53.550;9.964;2024-03-06T00:08:09;101789.47;;;21.87;40.05
55660;BME280;41534;53.550;9.964;2024-03-06T00:11:09;101787.94;;;21.84;39.90
55660;BME280;41534;53.550;9.964;2024-03-06T00:14:09;101798.34;;;21.81;39.96
55660;BME280;41534;53.550;9.964;2024-03-06T00:17:10;101800.41;;;21.79;40.01
55660;BME280;41534;53.550;9.964;2024-03-06T00:20:10;101804.34;;;21.76;40.00
55660;BME280;41534;53.550;9.964;2024-03-06T00:23:11;101802.84;;;21.74;40.18
55660;BME280;41534;53.550;9.964;2024-03-06T00:26:11;101812.22;;;21.71;39.94
55660;BME280;41534;53.550;9.964;2024-03-06T00:29:12;101811.53;;;21.69;40.17
55660;BME280;41534;53.550;9.964;2024-03-06T00:32:12;101808.13;;;21.67;40.13
55660;BME280;41534;53.550;9.964;2024-03-06T00:35:13;101807.47;;;21.65;40.24
55660;BME280;41534;53.550;9.964;2024-03-06T00:38:14;101806.78;;;21.63;40.19
55660;BME280;41534;53.550;9.964;2024-03-06T00:41:14;101809.03;;;21.59;40.37
55660;BME280;41534;53.550;9.964;2024-03-06T00:44:15;101818.25;;;21.58;40.42
55660;BME280;41534;53.550;9.964;2024-03-06T00:47:15;101820.13;;;21.58;40.42
55660;BME280;41534;53.550;9.964;2024-03-06T00:50:16;101815.88;;;21.55;40.36
55660;BME280;41534;53.550;9.964;2024-03-06T00:53:16;101818.94;;;21.52;40.46
55660;BME280;41534;53.550;9.964;2024-03-06T00:56:17;101820.97;;;21.50;40.38
55660;BME280;41534;53.550;9.964;2024-03-06T00:59:17;101827.63;;;21.48;40.63
55660;BME280;41534;53.550;9.964;2024-03-06T01:02:17;101830.72;;;21.45;40.31
55660;BME280;41534;53.550;9.964;2024-03-06T01:05:17;101833.63;;;21.43;40.65
55660;BME280;41534;53.550;9.964;2024-03-06T01:08:18;101843.00;;;21.41;40.60
55660;BME280;41534;53.550;9.964;2024-03-06T01:11:18;101842.31;;;21.39;40.61
55660;BME280;41534;53.550;9.964;2024-03-06T01:14:18;101844.38;;;21.36;40.51
55660;BME280;41534;53.550;9.964;2024-03-06T01:17:18;101840.94;;;21.34;40.71
55660;BME280;41534;53.550;9.964;2024-03-06T01:20:19;101847.59;;;21.32;40.52
55660;BME280;41534;53.550;9.964;2024-03-06T01:23:19;101848.63;;;21.31;40.60
55660;BME280;41534;53.550;9.964;2024-03-06T01:26:19;101850.84;;;21.27;40.68
55660;BME280;41534;53.550;9.964;2024-03-06T01:29:20;101855.63;;;21.25;40.74
55660;BME280;41534;53.550;9.964;2024-03-06T01:32:20;101851.22;;;21.24;40.82
55660;BME280;41534;53.550;9.964;2024-03-06T01:35:20;101855.28;;;21.20;40.66
55660;BME280;41534;53.550;9.964;2024-03-06T01:38:20;101852.19;;;21.15;40.73
55660;BME280;41534;53.550;9.964;2024-03-06T01:41:21;101860.88;;;21.11;40.47
55660;BME280;41534;53.550;9.964;2024-03-06T01:44:21;101860.38;;;21.07;40.64
55660;BME280;41534;53.550;9.964;2024-03-06T01:47:21;101867.22;;;21.03;40.50
55660;BME280;41534;53.550;9.964;2024-03-06T01:50:22;101870.44;;;20.98;40.50
55660;BME280;41534;53.550;9.964;2024-03-06T01:53:22;101864.63;;;20.93;40.46
55660;BME280;41534;53.550;9.964;2024-03-06T01:56:23;101875.88;;;20.90;40.58
55660;BME280;41534;53.550;9.964;2024-03-06T01:59:25;101876.41;;;20.86;40.27
55660;BME280;41534;53.550;9.964;2024-03-06T02:02:25;101871.31;;;20.83;40.21
55660;BME280;41534;53.550;9.964;2024-03-06T02:05:27;101882.50;;;20.80;40.31
55660;BME280;41534;53.550;9.964;2024-03-06T02:08:28;101869.22;;;20.76;40.11
55660;BME280;41534;53.550;9.964;2024-03-06T02:11:28;101876.72;;;20.74;40.05
55660;BME280;41534;53.550;9.964;2024-03-06T02:14:29;101872.47;;;20.72;39.88
55660;BME280;41534;53.550;9.964;2024-03-06T02:17:29;101875.53;;;20.69;39.88
55660;BME280;41534;53.550;9.964;2024-03-06T02:20:29;101876.72;;;20.66;39.86
55660;BME280;41534;53.550;9.964;2024-03-06T02:23:30;101876.19;;;20.63;39.85
55660;BME280;41534;53.550;9.964;2024-03-06T02:26:30;101877.38;;;20.60;39.57
55660;BME280;41534;53.550;9.964;2024-03-06T02:29:32;101878.56;;;20.58;39.48
55660;BME280;41534;53.550;9.964;2024-03-06T02:32:32;101881.63;;;20.55;39.39
55660;BME280;41534;53.550;9.964;2024-03-06T02:35:32;101891.00;;;20.52;39.36
55660;BME280;41534;53.550;9.964;2024-03-06T02:38:33;101883.00;;;20.51;39.50
55660;BME280;41534;53.550;9.964;2024-03-06T02:41:33;101886.03;;;20.47;39.14
55660;BME280;41534;53.550;9.964;2024-03-06T02:44:33;101888.06;;;20.45;39.21
55660;BME280;41534;53.550;9.964;2024-03-06T02:47:34;101881.09;;;20.43;39.03
55660;BME280;41534;53.550;9.964;2024-03-06T02:50:34;101887.69;;;20.40;38.82
55660;BME280;41534;53.550;9.964;2024-03-06T02:53:34;101883.44;;;20.38;38.69
55660;BME280;41534;53.550;9.964;2024-03-06T02:56:34;101881.03;;;20.35;38.44
55660;BME280;41534;53.550;9.964;2024-03-06T02:59:35;101884.09;;;20.32;38.51
55660;BME280;41534;53.550;9.964;2024-03-06T03:02:35;101882.53;;;20.29;38.45
55660;BME280;41534;53.550;9.964;2024-03-06T03:05:35;101880.84;;;20.28;38.41
55660;BME280;41534;53.550;9.964;2024-03-06T03:08:39;101882.03;;;20.26;38.31
55660;BME280;41534;53.550;9.964;2024-03-06T03:11:39;101886.78;;;20.24;38.12
55660;BME280;41534;53.550;9.964;2024-03-06T03:14:40;101887.13;;;20.21;38.18
55660;BME280;41534;53.550;9.964;2024-03-06T03:17:40;101884.72;;;20.17;38.10
55660;BME280;41534;53.550;9.964;2024-03-06T03:20:40;101885.91;;;20.15;38.03
55660;BME280;41534;53.550;9.964;2024-03-06T03:23:41;101887.91;;;20.13;37.94
55660;BME280;41534;53.550;9.964;2024-03-06T03:26:41;101891.81;;;20.10;37.94
55660;BME280;41534;53.550;9.964;2024-03-06T03:29:41;101895.72;;;20.08;37.95
55660;BME280;41534;53.550;9.964;2024-03-06T03:32:42;101903.22;;;20.06;37.85
55660;BME280;41534;53.550;9.964;2024-03-06T03:35:42;101905.25;;;20.04;37.81
55660;BME280;41534;53.550;9.964;2024-03-06T03:38:42;101898.44;;;20.00;37.76
55660;BME280;41534;53.550;9.964;2024-03-06T03:41:46;101899.44;;;19.99;37.71
55660;BME280;41534;53.550;9.964;2024-03-06T03:44:47;101905.06;;;19.97;37.57
55660;BME280;41534;53.550;9.964;2024-03-06T03:47:47;101905.19;;;19.96;37.61
55660;BME280;41534;53.550;9.964;2024-03-06T03:50:47;101906.38;;;19.93;38.01
55660;BME280;41534;53.550;9.964;2024-03-06T03:53:48;101904.84;;;19.91;37.56
55660;BME280;41534;53.550;9.964;2024-03-06T03:56:48;101901.44;;;19.88;37.55
55660;BME280;41534;53.550;9.964;2024-03-06T03:59:48;101911.47;;;19.88;37.54
55660;BME280;41534;53.550;9.964;2024-03-06T04:02:48;101914.50;;;19.85;37.38
55660;BME280;41534;53.550;9.964;2024-03-06T04:05:49;101920.09;;;19.83;37.48
55660;BME280;41534;53.550;9.964;2024-03-06T04:08:50;101920.28;;;19.82;37.57
55660;BME280;41534;53.550;9.964;2024-03-06T04:11:50;101916.00;;;19.79;37.37
55660;BME280;41534;53.550;9.964;2024-03-06T04:14:50;101923.44;;;19.77;37.42
55660;BME280;41534;53.550;9.964;2024-03-06T04:17:50;101917.31;;;19.75;37.27
55660;BME280;41534;53.550;9.964;2024-03-06T04:20:51;101922.94;;;19.74;37.34
55660;BME280;41534;53.550;9.964;2024-03-06T04:23:51;101926.81;;;19.71;37.47
55660;BME280;41534;53.550;9.964;2024-03-06T04:26:51;101929.72;;;19.70;37.41
55660;BME280;41534;53.550;9.964;2024-03-06T04:29:51;101929.19;;;19.66;37.43
55660;BME280;41534;53.550;9.964;2024-03-06T04:32:52;101929.34;;;19.65;37.37
55660;BME280;41534;53.550;9.964;2024-03-06T04:35:52;101928.66;;;19.63;37.39
55660;BME280;41534;53.550;9.964;2024-03-06T04:38:52;101929.81;;;19.60;37.23
55660;BME280;41534;53.550;9.964;2024-03-06T04:41:53;101935.41;;;19.58;37.26
55660;BME280;41534;53.550;9.964;2024-03-06T04:44:53;101926.56;;;19.56;37.27
55660;BME280;41534;53.550;9.964;2024-03-06T04:47:53;101927.56;;;19.55;37.18
55660;BME280;41534;53.550;9.964;2024-03-06T04:50:53;101935.00;;;19.53;37.27
55660;BME280;41534;53.550;9.964;2024-03-06T04:53:54;101936.00;;;19.52;37.27
55660;BME280;41534;53.550;9.964;2024-03-06T04:56:55;101938.22;;;19.49;37.20
55660;BME280;41534;53.550;9.964;2024-03-06T04:59:55;101933.63;;;19.49;37.14
55660;BME280;41534;53.550;9.964;2024-03-06T05:02:55;101942.94;;;19.47;37.23
55660;BME280;41534;53.550;9.964;2024-03-06T05:05:56;101940.41;;;19.45;37.27
55660;BME280;41534;53.550;9.964;2024-03-06T05:08:56;101947.81;;;19.43;37.19
55660;BME280;41534;53.550;9.964;2024-03-06T05:11:56;101948.00;;;19.42;36.86
55660;BME280;41534;53.550;9.964;2024-03-06T05:14:56;101951.88;;;19.39;37.15
55660;BME280;41534;53.550;9.964;2024-03-06T05:17:57;101963.75;;;19.38;37.17
55660;BME280;41534;53.550;9.964;2024-03-06T05:20:57;101959.50;;;19.36;36.97
55660;BME280;41534;53.550;9.964;2024-03-06T05:23:57;101967.81;;;19.34;37.07
55660;BME280;41534;53.550;9.964;2024-03-06T05:26:57;101974.44;;;19.32;37.08
55660;BME280;41534;53.550;9.964;2024-03-06T05:29:58;101977.31;;;19.30;37.09
55660;BME280;41534;53.550;9.964;2024-03-06T05:32:58;101979.31;;;19.28;36.97
55660;BME280;41534;53.550;9.964;2024-03-06T05:35:58;101993.06;;;19.26;37.08
55660;BME280;41534;53.550;9.964;2024-03-06T05:38:58;102004.06;;;19.25;37.14
55660;BME280;41534;53.550;9.964;2024-03-06T05:42:03;102004.22;;;19.23;36.97
55660;BME280;41534;53.550;9.964;2024-03-06T05:45:04;102005.41;;;19.21;37.07
55660;BME280;41534;53.550;9.964;2024-03-06T05:48:05;102013.72;;;19.19;37.03
55660;BME280;41534;53.550;9.964;2024-03-06T05:51:05;102015.56;;;19.19;36.83
55660;BME280;41534;53.550;9.964;2024-03-06T05:54:05;102017.44;;;19.18;36.96
55660;BME280;41534;53.550;9.964;2024-03-06T05:57:06;102030.31;;;19.16;36.86
55660;BME280;41534;53.550;9.964;2024-03-06T06:00:07;102035.91;;;19.15;36.79
55660;BME280;41534;53.550;9.964;2024-03-06T06:03:08;102035.22;;;19.13;36.78
55660;BME280;41534;53.550;9.964;2024-03-06T06:06:08;102038.09;;;19.11;36.89
55660;BME280;41534;53.550;9.964;2024-03-06T06:09:09;102048.97;;;19.11;36.79
55660;BME280;41534;53.550;9.964;2024-03-06T06:12:09;102049.25;;;19.08;36.76
55660;BME280;41534;53.550;9.964;2024-03-06T06:15:10;102051.09;;;19.08;36.68
55660;BME280;41534;53.550;9.964;2024-03-06T06:18:10;102053.97;;;19.06;36.97
55660;BME280;41534;53.550;9.964;2024-03-06T06:21:10;102055.00;;;19.05;36.77
55660;BME280;41534;53.550;9.964;2024-03-06T06:24:10;102057.84;;;19.04;36.73
55660;BME280;41534;53.550;9.964;2024-03-06T06:27:11;102059.88;;;19.02;36.86
55660;BME280;41534;53.550;9.964;2024-03-06T06:30:12;102081.63;;;19.02;36.89
55660;BME280;41534;53.550;9.964;2024-03-06T06:33:12;102073.47;;;19.02;36.89
55660;BME280;41534;53.550;9.964;2024-03-06T06:36:12;102078.19;;;19.00;36.72
55660;BME280;41534;53.550;9.964;2024-03-06T06:39:13;102085.50;;;18.99;36.88
55660;BME280;41534;53.550;9.964;2024-03-06T06:42:13;102089.06;;;19.00;36.83
55660;BME280;41534;53.550;9.964;2024-03-06T06:45:13;102093.66;;;18.99;36.69
55660;BME280;41534;53.550;9.964;2024-03-06T06:48:14;102098.22;;;18.98;36.94
55660;BME280;41534;53.550;9.964;2024-03-06T06:51:14;102097.38;;;18.98;36.76
55660;BME280;41534;53.550;9.964;2024-03-06T06:54:15;102102.81;;;18.98;36.71
55660;BME280;41534;53.550;9.964;2024-03-06T06:57:15;102109.09;;;18.98;36.73
55660;BME280;41534;53.550;9.964;2024-03-06T07:00:16;102100.09;;;18.98;36.68
55660;BME280;41534;53.550;9.964;2024-03-06T07:03:16;102115.53;;;18.97;36.71
55660;BME280;41534;53.550;9.964;2024-03-06T07:06:16;102116.38;;;18.98;36.96
55660;BME280;41534;53.550;9.964;2024-03-06T07:09:17;102119.94;;;18.98;36.61
55660;BME280;41534;53.550;9.964;2024-03-06T07:12:17;102115.38;;;18.99;36.50
55660;BME280;41534;53.550;9.964;2024-03-06T07:15:17;102118.09;;;18.99;36.58
55660;BME280;41534;53.550;9.964;2024-03-06T07:18:17;102118.94;;;19.00;36.53
55660;BME280;41534;53.550;9.964;2024-03-06T07:21:18;102126.09;;;19.01;36.55
55660;BME280;41534;53.550;9.964;2024-03-06T07:24:18;102121.34;;;19.03;36.64
55660;BME280;41534;53.550;9.964;2024-03-06T07:27:18;102133.06;;;19.03;36.76
55660;BME280;41534;53.550;9.964;2024-03-06T07:30:19;102130.22;;;19.05;36.70
55660;BME280;41534;53.550;9.964;2024-03-06T07:33:19;102138.19;;;19.06;36.64
55660;BME280;41534;53.550;9.964;2024-03-06T07:36:20;102144.22;;;19.10;36.90
55660;BME280;41534;53.550;9.964;2024-03-06T07:39:21;102136.91;;;19.10;36.80
55660;BME280;41534;53.550;9.964;2024-03-06T07:42:21;102132.19;;;19.12;36.99
55660;BME280;41534;53.550;9.964;2024-03-06T07:45:21;102134.75;;;19.14;37.03
55660;BME280;41534;53.550;9.964;2024-03-06T07:48:22;102135.44;;;19.16;37.43
55660;BME280;41534;53.550;9.964;2024-03-06T07:51:22;102144.00;;;19.21;37.49
55660;BME280;41534;53.550;9.964;2024-03-06T07:54:23;102150.81;;;19.25;37.29
55660;BME280;41534;53.550;9.964;2024-03-06T07:57:23;102154.13;;;19.28;37.42
55660;BME280;41534;53.550;9.964;2024-03-06T08:00:23;102159.78;;;19.35;37.69
55660;BME280;41534;53.550;9.964;2024-03-06T08:03:24;102154.75;;;19.40;38.02
55660;BME280;41534;53.550;9.964;2024-03-06T08:06:24;102153.13;;;19.47;38.42
55660;BME280;41534;53.550;9.964;2024-03-06T08:09:24;102163.97;;;19.57;38.44
55660;BME280;41534;53.550;9.964;2024-03-06T08:12:24;102166.47;;;19.68;38.55
55660;BME280;41534;53.550;9.964;2024-03-06T08:15:25;102174.09;;;19.82;38.70
55660;BME280;41534;53.550;9.964;2024-03-06T08:18:25;102181.41;;;20.00;38.77
55660;BME280;41534;53.550;9.964;2024-03-06T08:21:26;102181.59;;;20.24;38.77
55660;BME280;41534;53.550;9.964;2024-03-06T08:24:26;102178.56;;;20.45;38.73
55660;BME280;41534;53.550;9.964;2024-03-06T08:27:26;102186.22;;;20.67;38.58
55660;BME280;41534;53.550;9.964;2024-03-06T08:30:27;102189.72;;;20.86;38.71
55660;BME280;41534;53.550;9.964;2024-03-06T08:33:27;102184.91;;;21.05;38.67
55660;BME280;41534;53.550;9.964;2024-03-06T08:36:27;102195.03;;;21.21;38.68
55660;BME280;41534;53.550;9.964;2024-03-06T08:39:27;102197.84;;;21.38;38.46
55660;BME280;41534;53.550;9.964;2024-03-06T08:42:28;102201.66;;;21.53;38.74
55660;BME280;41534;53.550;9.964;2024-03-06T08:45:28;102204.56;;;21.67;38.41
55660;BME280;41534;53.550;9.964;2024-03-06T08:48:29;102206.66;;;21.82;38.58
55660;BME280;41534;53.550;9.964;2024-03-06T08:51:29;102207.88;;;21.95;38.79
55660;BME280;41534;53.550;9.964;2024-03-06T08:54:29;102207.22;;;22.10;38.51
55660;BME280;41534;53.550;9.964;2024-03-06T08:57:30;102209.28;;;22.24;38.56
55660;BME280;41534;53.550;9.964;2024-03-06T09:00:30;102216.09;;;22.36;38.74
55660;BME280;41534;53.550;9.964;2024-03-06T09:03:30;102220.03;;;22.50;38.46
55660;BME280;41534;53.550;9.964;2024-03-06T09:06:30;102219.50;;;22.63;38.33
55660;BME280;41534;53.550;9.964;2024-03-06T09:09:31;102225.47;;;22.74;38.61
55660;BME280;41534;53.550;9.964;2024-03-06T09:12:31;102233.16;;;22.87;38.74
55660;BME280;41534;53.550;9.964;2024-03-06T09:15:31;102229.22;;;22.98;38.70
55660;BME280;41534;53.550;9.964;2024-03-06T09:18:32;102226.25;;;23.07;38.61
55660;BME280;41534;53.550;9.964;2024-03-06T09:21:32;102230.00;;;23.14;38.60
55660;BME280;41534;53.550;9.964;2024-03-06T09:24:33;102233.06;;;23.20;38.46
55660;BME280;41534;53.550;9.964;2024-03-06T09:27:33;102239.88;;;23.24;38.63
55660;BME280;41534;53.550;9.964;2024-03-06T09:30:34;102239.56;;;23.27;38.58
55660;BME280;41534;53.550;9.964;2024-03-06T09:33:34;102245.69;;;23.29;38.79
55660;BME280;41534;53.550;9.964;2024-03-06T09:36:34;102240.91;;;23.31;38.94
55660;BME280;41534;53.550;9.964;2024-03-06T09:39:35;102247.41;;;23.30;38.66
55660;BME280;41534;53.550;9.964;2024-03-06T09:42:35;102251.00;;;23.30;39.03
55660;BME280;41534;53.550;9.964;2024-03-06T09:45:36;102254.94;;;23.28;39.54
55660;BME280;41534;53.550;9.964;2024-03-06T09:48:44;102248.09;;;23.24;39.03
55660;BME280;41534;53.550;9.964;2024-03-06T09:51:47;102262.66;;;23.16;38.98
55660;BME280;41534;53.550;9.964;2024-03-06T09:54:48;102260.78;;;23.16;38.95
55660;BME280;41534;53.550;9.964;2024-03-06T09:57:49;102261.97;;;23.14;39.01
55660;BME280;41534;53.550;9.964;2024-03-06T10:00:53;102259.59;;;23.11;39.34
55660;BME280;41534;53.550;9.964;2024-03-06T10:03:55;102258.94;;;23.09;38.94
55660;BME280;41534;53.550;9.964;2024-03-06T10:06:59;102269.00;;;23.08;38.97
55660;BME280;41534;53.550;9.964;2024-03-06T10:10:00;102270.72;;;23.09;39.25
55660;BME280;41534;53.550;9.964;2024-03-06T10:13:00;102270.72;;;23.09;39.32
55660;BME280;41534;53.550;9.964;2024-03-06T10:16:01;102265.56;;;23.06;39.36
55660;BME280;41534;53.550;9.964;2024-03-06T10:19:15;102279.06;;;23.08;39.45
55660;BME280;41534;53.550;9.964;2024-03-06T10:22:16;102278.91;;;23.09;39.82
55660;BME280;41534;53.550;9.964;2024-03-06T10:25:20;102283.84;;;23.14;39.75
55660;BME280;41534;53.550;9.964;2024-03-06T10:28:22;102277.19;;;23.16;39.93
55660;BME280;41534;53.550;9.964;2024-03-06T10:31:28;102282.28;;;23.20;40.17
55660;BME280;41534;53.550;9.964;2024-03-06T10:34:29;102278.34;;;23.22;40.11
55660;BME280;41534;53.550;9.964;2024-03-06T10:37:29;102274.41;;;23.25;40.19
55660;BME280;41534;53.550;9.964;2024-03-06T10:40:35;102280.91;;;23.32;40.25
55660;BME280;41534;53.550;9.964;2024-03-06T10:43:35;102278.28;;;23.38;40.08
55660;BME280;41534;53.550;9.964;2024-03-06T10:46:38;102277.06;;;23.49;40.35
55660;BME280;41534;53.550;9.964;2024-03-06T10:49:40;102276.69;;;23.60;40.12
55660;BME280;41534;53.550;9.964;2024-03-06T10:52:41;102273.56;;;23.71;40.38
55660;BME280;41534;53.550;9.964;2024-03-06T10:55:45;102279.03;;;23.80;40.13
55660;BME280;41534;53.550;9.964;2024-03-06T10:58:47;102276.22;;;23.88;40.09
55660;BME280;41534;53.550;9.964;2024-03-06T11:01:51;102279.28;;;23.93;39.98
55660;BME280;41534;53.550;9.964;2024-03-06T11:04:51;102284.03;;;23.99;39.69
55660;BME280;41534;53.550;9.964;2024-03-06T11:07:52;102279.50;;;23.83;39.68
55660;BME280;41534;53.550;9.964;2024-03-06T11:10:52;102280.09;;;23.70;39.17
55660;BME280;41534;53.550;9.964;2024-03-06T11:14:00;102277.06;;;23.57;38.61
55660;BME280;41534;53.550;9.964;2024-03-06T11:17:06;102282.06;;;23.45;38.73
55660;BME280;41534;53.550;9.964;2024-03-06T11:20:12;102281.41;;;23.35;38.68
55660;BME280;41534;53.550;9.964;2024-03-06T11:23:13;102283.81;;;23.30;38.82
55660;BME280;41534;53.550;9.964;2024-03-06T11:26:13;102290.81;;;23.25;38.97
55660;BME280;41534;53.550;9.964;2024-03-06T11:29:17;102289.66;;;23.19;38.82
55660;BME280;41534;53.550;9.964;2024-03-06T11:32:18;102292.72;;;23.16;39.00
55660;BME280;41534;53.550;9.964;2024-03-06T11:35:18;102287.44;;;23.14;38.91
55660;BME280;41534;53.550;9.964;2024-03-06T11:38:19;102290.50;;;23.28;39.11
55660;BME280;41534;53.550;9.964;2024-03-06T11:41:21;102294.88;;;23.37;39.20
55660;BME280;41534;53.550;9.964;2024-03-06T11:44:22;102291.63;;;23.41;39.28
55660;BME280;41534;53.550;9.964;2024-03-06T11:47:22;102288.38;;;23.46;39.26
55660;BME280;41534;53.550;9.964;2024-03-06T11:50:24;102290.56;;;23.51;39.52
55660;BME280;41534;53.550;9.964;2024-03-06T11:53:24;102287.47;;;23.54;39.54
55660;BME280;41534;53.550;9.964;2024-03-06T11:56:25;102285.94;;;23.59;39.58
55660;BME280;41534;53.550;9.964;2024-03-06T11:59:27;102289.19;;;23.63;39.73
55660;BME280;41534;53.550;9.964;2024-03-06T12:02:27;102279.97;;;23.64;39.70
55660;BME280;41534;53.550;9.964;2024-03-06T12:05:27;102289.69;;;23.66;39.76
55660;BME280;41534;53.550;9.964;2024-03-06T12:08:27;102285.25;;;23.65;39.88
55660;BME280;41534;53.550;9.964;2024-03-06T12:11:28;102278.75;;;23.66;39.80
55660;BME280;41534;53.550;9.964;2024-03-06T12:14:29;102284.03;;;23.68;40.03
55660;BME280;41534;53.550;9.964;2024-03-06T12:17:29;102290.06;;;23.63;39.80
55660;BME280;41534;53.550;9.964;2024-03-06T12:20:29;102291.75;;;23.64;39.64
55660;BME280;41534;53.550;9.964;2024-03-06T12:23:30;102291.75;;;23.64;39.76
55660;BME280;41534;53.550;9.964;2024-03-06T12:26:30;102300.63;;;23.66;39.49
55660;BME280;41534;53.550;9.964;2024-03-06T12:29:32;102294.97;;;23.68;39.56
55660;BME280;41534;53.550;9.964;2024-03-06T12:32:32;102298.56;;;23.68;39.74
55660;BME280;41534;53.550;9.964;2024-03-06T12:35:33;102291.03;;;23.70;39.87
55660;BME280;41534;53.550;9.964;2024-03-06T12:38:33;102297.53;;;23.69;39.83
55660;BME280;41534;53.550;9.964;2024-03-06T12:41:33;102289.31;;;23.69;39.82
55660;BME280;41534;53.550;9.964;2024-03-06T12:44:33;102301.31;;;23.68;39.83
55660;BME280;41534;53.550;9.964;2024-03-06T12:47:34;102297.72;;;23.68;39.83
55660;BME280;41534;53.550;9.964;2024-03-06T12:50:34;102290.72;;;23.65;39.90
55660;BME280;41534;53.550;9.964;2024-03-06T12:53:34;102290.91;;;23.64;40.01
55660;BME280;41534;53.550;9.964;2024-03-06T12:56:35;102293.81;;;23.62;39.91
55660;BME280;41534;53.550;9.964;2024-03-06T12:59:35;102298.78;;;23.59;39.93
55660;BME280;41534;53.550;9.964;2024-03-06T13:02:35;102300.31;;;23.53;39.87
55660;BME280;41534;53.550;9.964;2024-03-06T13:05:36;102298.78;;;23.51;39.94
55660;BME280;41534;53.550;9.964;2024-03-06T13:08:36;102295.00;;;23.52;39.84
55660;BME280;41534;53.550;9.964;2024-03-06T13:11:36;102299.28;;;23.54;39.86
55660;BME280;41534;53.550;9.964;2024-03-06T13:14:37;102299.94;;;23.56;39.93
55660;BME280;41534;53.550;9.964;2024-03-06T13:17:37;102301.50;;;23.59;39.89
55660;BME280;41534;53.550;9.964;2024-03-06T13:20:37;102298.78;;;23.59;40.02
55660;BME280;41534;53.550;9.964;2024-03-06T13:23:37;102305.09;;;23.59;40.21
55660;BME280;41534;53.550;9.964;2024-03-06T13:26:38;102307.69;;;23.61;40.49
55660;BME280;41534;53.550;9.964;2024-03-06T13:29:38;102301.50;;;23.59;40.37
55660;BME280;41534;53.550;9.964;2024-03-06T13:32:38;102301.84;;;23.56;40.47
55660;BME280;41534;53.550;9.964;2024-03-06T13:35:39;102299.28;;;23.54;40.74
55660;BME280;41534;53.550;9.964;2024-03-06T13:38:39;102302.38;;;23.51;40.51
55660;BME280;41534;53.550;9.964;2024-03-06T13:41:39;102300.84;;;23.49;40.60
55660;BME280;41534;53.550;9.964;2024-03-06T13:44:39;102301.88;;;23.48;40.67
55660;BME280;41534;53.550;9.964;2024-03-06T13:47:41;102303.09;;;23.45;40.70
55660;BME280;41534;53.550;9.964;2024-03-06T13:50:45;102306.00;;;23.43;40.70
55660;BME280;41534;53.550;9.964;2024-03-06T13:53:46;102303.41;;;23.42;40.69
55660;BME280;41534;53.550;9.964;2024-03-06T13:56:46;102305.47;;;23.40;40.70
55660;BME280;41534;53.550;9.964;2024-03-06T13:59:46;102308.22;;;23.40;40.86
55660;BME280;41534;53.550;9.964;2024-03-06T14:02:46;102300.19;;;23.38;40.91
55660;BME280;41534;53.550;9.964;2024-03-06T14:05:47;102303.81;;;23.31;40.57
55660;BME280;41534;53.550;9.964;2024-03-06T14:08:47;102305.53;;;23.24;40.51
55660;BME280;41534;53.550;9.964;2024-03-06T14:11:47;102307.22;;;23.25;40.55
55660;BME280;41534;53.550;9.964;2024-03-06T14:14:47;102301.63;;;23.26;40.57
55660;BME280;41534;53.550;9.964;2024-03-06T14:17:48;102306.91;;;23.28;40.68
55660;BME280;41534;53.550;9.964;2024-03-06T14:20:48;102306.06;;;23.27;40.78
55660;BME280;41534;53.550;9.964;2024-03-06T14:23:48;102312.38;;;23.28;40.63
55660;BME280;41534;53.550;9.964;2024-03-06T14:26:48;102303.31;;;23.27;40.73
55660;BME280;41534;53.550;9.964;2024-03-06T14:29:49;102314.44;;;23.26;40.69
55660;BME280;41534;53.550;9.964;2024-03-06T14:32:49;102309.97;;;23.25;40.81
55660;BME280;41534;53.550;9.964;2024-03-06T14:35:49;102306.38;;;23.24;40.73
55660;BME280;41534;53.550;9.964;2024-03-06T14:38:50;102305.69;;;23.22;40.80
55660;BME280;41534;53.550;9.964;2024-03-06T14:41:51;102313.06;;;23.22;40.61
55660;BME280;41534;53.550;9.964;2024-03-06T14:44:51;102306.91;;;23.20;40.67
55660;BME280;41534;53.550;9.964;2024-03-06T14:47:51;102320.59;;;23.20;40.63
55660;BME280;41534;53.550;9.964;2024-03-06T14:50:52;102315.47;;;23.16;40.58
55660;BME280;41534;53.550;9.964;2024-03-06T14:53:52;102321.97;;;23.15;40.76
55660;BME280;41534;53.550;9.964;2024-03-06T14:56:52;102325.06;;;23.12;40.75
55660;BME280;41534;53.550;9.964;2024-03-06T14:59:53;102331.38;;;23.13;40.86
55660;BME280;41534;53.550;9.964;2024-03-06T15:02:53;102323.34;;;23.11;40.57
55660;BME280;41534;53.550;9.964;2024-03-06T15:05:53;102323.53;;;23.10;40.52
55660;BME280;41534;53.550;9.964;2024-03-06T15:08:53;102330.34;;;23.06;40.58
55660;BME280;41534;53.550;9.964;2024-03-06T15:11:54;102330.53;;;22.96;40.63
55660;BME280;41534;53.550;9.964;2024-03-06T15:14:54;102330.72;;;22.86;40.64
55660;BME280;41534;53.550;9.964;2024-03-06T15:17:54;102337.00;;;22.79;40.61
55660;BME280;41534;53.550;9.964;2024-03-06T15:20:55;102340.41;;;22.73;40.56
55660;BME280;41534;53.550;9.964;2024-03-06T15:23:55;102331.03;;;22.67;40.62
55660;BME280;41534;53.550;9.964;2024-03-06T15:26:55;102342.66;;;22.61;40.50
55660;BME280;41534;53.550;9.964;2024-03-06T15:29:55;102332.91;;;22.42;38.70
55660;BME280;41534;53.550;9.964;2024-03-06T15:32:56;102339.75;;;21.96;33.76
55660;BME280;41534;53.550;9.964;2024-03-06T15:35:56;102342.41;;;21.46;33.72
55660;BME280;41534;53.550;9.964;2024-03-06T15:38:56;102345.53;;;21.07;33.04
55660;BME280;41534;53.550;9.964;2024-03-06T15:41:57;102344.25;;;20.75;32.32
55660;BME280;41534;53.550;9.964;2024-03-06T15:44:57;102339.84;;;20.57;33.17